Time;durP1;ratioP1;P1;durP2;ratioP2;P2;SDS_P1;SDS_P2;PMS_P1;PMS_P2;Temp;Humidity;BMP_temperature;BMP_pressure;BME280_temperature;BME280_humidity;BME280_pressure;Samples;Min_cycle;Max_cycle;Signal;HPM_P1;HPM_P2
2023/07/21 00:00:10;;;;;;;5.27;4.60;;;15.70;99.90;;;;;;5014832;28;20239;-75
2023/07/21 00:02:38;;;;;;;7.63;5.10;;;15.70;99.90;;;;;;5014894;28;20149;-75
2023/07/21 00:05:03;;;;;;;4.77;4.37;;;15.60;99.90;;;;;;5011787;28;20185;-75
2023/07/21 00:07:32;;;;;;;7.50;5.10;;;15.60;99.90;;;;;;5012665;28;20177;-75
2023/07/21 00:09:59;;;;;;;7.97;4.63;;;15.50;99.90;;;;;;5011520;28;20578;-75
2023/07/21 00:12:24;;;;;;;7.37;4.70;;;15.50;99.90;;;;;;5014158;28;20633;-75
2023/07/21 00:14:50;;;;;;;6.43;5.10;;;15.40;99.90;;;;;;5013328;28;20169;-75
2023/07/21 00:17:16;;;;;;;5.67;5.17;;;15.40;99.90;;;;;;5013180;28;20584;-75
2023/07/21 00:19:44;;;;;;;5.03;4.53;;;15.30;99.90;;;;;;5013177;28;20204;-75
2023/07/21 00:22:10;;;;;;;5.57;4.93;;;15.30;99.90;;;;;;5011447;28;20315;-75
2023/07/21 00:24:35;;;;;;;6.10;5.30;;;15.30;99.90;;;;;;5014424;28;20208;-75
2023/07/21 00:27:02;;;;;;;6.70;5.60;;;15.20;99.90;;;;;;5014369;28;20654;-75
2023/07/21 00:29:29;;;;;;;8.37;5.23;;;15.20;99.90;;;;;;5014271;28;20197;-75
2023/07/21 00:31:55;;;;;;;7.13;5.47;;;15.10;99.90;;;;;;5012343;28;20656;-75
2023/07/21 00:34:24;;;;;;;6.30;5.30;;;15.10;99.90;;;;;;5014348;28;20187;-75
2023/07/21 00:36:51;;;;;;;5.17;4.77;;;15.00;99.90;;;;;;5011958;28;20209;-75
2023/07/21 00:39:16;;;;;;;5.30;4.80;;;15.00;99.90;;;;;;5014036;28;20168;-75
2023/07/21 00:41:42;;;;;;;5.37;4.93;;;15.00;99.90;;;;;;5012074;28;20259;-75
2023/07/21 00:44:09;;;;;;;5.80;5.10;;;15.00;99.90;;;;;;5012810;28;20635;-75
2023/07/21 00:46:35;;;;;;;6.00;5.50;;;15.00;99.90;;;;;;5012627;28;20544;-75
2023/07/21 00:49:02;;;;;;;6.50;5.90;;;14.90;99.90;;;;;;5013993;28;20172;-77
2023/07/21 00:51:28;;;;;;;6.13;5.30;;;14.90;99.90;;;;;;5011660;28;20193;-75
2023/07/21 00:53:54;;;;;;;5.80;5.20;;;14.90;99.90;;;;;;5012767;28;20181;-75
2023/07/21 00:56:19;;;;;;;9.43;5.23;;;14.90;99.90;;;;;;5012568;28;20200;-74
2023/07/21 00:58:45;;;;;;;7.37;5.60;;;14.90;99.90;;;;;;5013866;28;20177;-75
2023/07/21 01:01:10;;;;;;;7.03;6.10;;;14.90;99.90;;;;;;5012857;28;20212;-75
2023/07/21 01:03:39;;;;;;;6.20;5.43;;;14.80;99.90;;;;;;5012923;28;20562;-75
2023/07/21 01:06:07;;;;;;;6.23;5.63;;;14.90;99.90;;;;;;5013637;28;20173;-75
2023/07/21 01:08:33;;;;;;;6.87;6.20;;;14.80;99.90;;;;;;5013564;28;20204;-75
2023/07/21 01:11:00;;;;;;;6.20;5.60;;;14.80;99.90;;;;;;5012232;28;20204;-75
2023/07/21 01:13:27;;;;;;;6.07;5.47;;;14.80;99.90;;;;;;5012216;28;20595;-75
2023/07/21 01:15:55;;;;;;;6.63;5.53;;;14.70;99.90;;;;;;5013427;28;20201;-75
2023/07/21 01:18:22;;;;;;;7.40;5.90;;;14.70;99.90;;;;;;5013357;28;20183;-75
2023/07/21 01:20:49;;;;;;;6.43;5.83;;;14.70;99.90;;;;;;5012598;28;20193;-75
2023/07/21 01:23:26;;;;;;;8.47;6.30;;;14.70;99.90;;;;;;5013664;28;20645;-75
2023/07/21 01:25:54;;;;;;;6.53;5.23;;;14.70;99.90;;;;;;5013799;28;20169;-76
2023/07/21 01:28:20;;;;;;;7.07;5.37;;;14.70;99.90;;;;;;5013533;28;20640;-74
2023/07/21 01:30:48;;;;;;;7.00;6.30;;;14.70;99.90;;;;;;5012222;28;20204;-75
2023/07/21 01:33:18;;;;;;;7.13;6.43;;;14.70;99.90;;;;;;5011341;28;20185;-75
2023/07/21 01:35:45;;;;;;;6.27;5.67;;;14.60;99.90;;;;;;5011638;28;20219;-75
2023/07/21 01:38:13;;;;;;;6.73;5.83;;;14.70;99.90;;;;;;5013062;28;20196;-75
2023/07/21 01:40:39;;;;;;;6.37;5.83;;;14.60;99.90;;;;;;5011922;28;20210;-75
2023/07/21 01:43:05;;;;;;;5.90;5.40;;;14.60;99.90;;;;;;5007842;28;20569;-76
2023/07/21 01:45:30;;;;;;;7.63;5.63;;;14.50;99.90;;;;;;5011477;28;20188;-75
2023/07/21 01:47:57;;;;;;;6.17;5.60;;;14.50;99.90;;;;;;5012279;28;20551;-76
2023/07/21 01:50:24;;;;;;;7.40;6.70;;;14.50;99.90;;;;;;5011721;28;20201;-76
2023/07/21 01:52:51;;;;;;;7.00;6.40;;;14.50;99.90;;;;;;5011883;28;20173;-76
2023/07/21 01:55:23;;;;;;;7.93;6.70;;;14.50;99.90;;;;;;5011583;28;20263;-76
2023/07/21 01:57:57;;;;;;;11.80;6.77;;;14.50;99.90;;;;;;5011660;28;20177;-75
2023/07/21 02:00:26;;;;;;;7.43;6.50;;;14.50;99.90;;;;;;5013020;28;20189;-76
2023/07/21 02:02:52;;;;;;;8.53;6.97;;;14.50;99.90;;;;;;5012761;28;20668;-75
2023/07/21 02:05:22;;;;;;;8.20;7.13;;;14.50;99.90;;;;;;5010767;28;20181;-75
2023/07/21 02:07:50;;;;;;;7.43;6.83;;;14.50;99.90;;;;;;5009913;28;20192;-76
2023/07/21 02:10:16;;;;;;;8.40;7.70;;;14.50;99.90;;;;;;5011309;28;20192;-76
2023/07/21 02:12:41;;;;;;;8.50;7.70;;;14.40;99.90;;;;;;5012658;28;20536;-75
2023/07/21 02:15:07;;;;;;;8.17;7.37;;;14.50;99.90;;;;;;5011217;28;20184;-76
2023/07/21 02:17:33;;;;;;;7.77;7.07;;;14.40;99.90;;;;;;5011319;28;20577;-75
2023/07/21 02:19:59;;;;;;;9.63;7.83;;;14.40;99.90;;;;;;5012597;28;20287;-76
2023/07/21 02:22:25;;;;;;;9.03;8.13;;;14.40;99.90;;;;;;5011325;28;20199;-75
2023/07/21 02:24:50;;;;;;;7.90;7.10;;;14.40;99.90;;;;;;5007033;28;20649;-75
2023/07/21 02:27:16;;;;;;;8.73;7.93;;;14.40;99.90;;;;;;5011219;28;20250;-75
2023/07/21 02:29:48;;;;;;;8.83;8.00;;;14.40;99.90;;;;;;5012687;28;20193;-75
2023/07/21 02:32:13;;;;;;;9.83;8.83;;;14.40;99.90;;;;;;5011275;28;20679;-75
2023/07/21 02:34:41;;;;;;;9.83;8.93;;;14.30;99.90;;;;;;5010204;28;20197;-75
2023/07/21 02:37:06;;;;;;;12.23;9.03;;;14.30;99.90;;;;;;5012395;28;20254;-75
2023/07/21 02:39:32;;;;;;;10.10;7.93;;;14.30;99.90;;;;;;5012566;28;20203;-75
2023/07/21 02:41:59;;;;;;;9.90;8.33;;;14.30;99.90;;;;;;5012296;28;20173;-75
2023/07/21 02:44:25;;;;;;;10.97;8.47;;;14.30;99.90;;;;;;5010631;28;20173;-75
2023/07/21 02:46:52;;;;;;;9.63;8.73;;;14.20;99.90;;;;;;5012246;28;20200;-75
2023/07/21 02:49:18;;;;;;;8.20;7.40;;;14.20;99.90;;;;;;5010941;28;20181;-75
2023/07/21 02:51:43;;;;;;;8.73;7.93;;;14.20;99.90;;;;;;5012238;28;20188;-75
2023/07/21 02:54:09;;;;;;;7.60;6.73;;;14.20;99.90;;;;;;5009284;28;20596;-75
2023/07/21 02:56:34;;;;;;;8.03;7.23;;;14.40;99.90;;;;;;5012182;28;20250;-75
2023/07/21 02:59:01;;;;;;;8.07;7.27;;;14.20;99.90;;;;;;5012945;28;20183;-76
2023/07/21 03:01:28;;;;;;;9.83;7.67;;;14.20;99.90;;;;;;5015959;28;20259;-75
2023/07/21 03:03:54;;;;;;;7.60;6.90;;;14.20;99.90;;;;;;5013392;28;20192;-76
2023/07/21 03:06:20;;;;;;;7.67;6.93;;;14.20;99.90;;;;;;5014592;28;20266;-75
2023/07/21 03:08:46;;;;;;;9.13;8.23;;;14.20;99.90;;;;;;5015820;28;20169;-75
2023/07/21 03:11:13;;;;;;;14.10;10.17;;;14.20;99.90;;;;;;5014371;28;20211;-75
2023/07/21 03:13:41;;;;;;;10.67;9.60;;;14.10;99.90;;;;;;5015871;28;20360;-75
2023/07/21 03:16:07;;;;;;;10.10;9.10;;;14.10;99.90;;;;;;5013307;28;20779;-75
2023/07/21 03:18:32;;;;;;;9.07;8.27;;;14.10;99.90;;;;;;5015921;28;20165;-75
2023/07/21 03:20:59;;;;;;;9.83;8.83;;;14.00;99.90;;;;;;5014292;28;20195;-75
2023/07/21 03:23:25;;;;;;;9.00;8.10;;;14.00;99.90;;;;;;5014249;28;20177;-75
2023/07/21 03:25:50;;;;;;;9.00;7.97;;;14.00;99.90;;;;;;5014211;28;20239;-75
2023/07/21 03:28:16;;;;;;;7.53;6.83;;;13.90;99.90;;;;;;5014167;28;20177;-75
2023/07/21 03:30:41;;;;;;;7.57;6.77;;;14.00;99.90;;;;;;5015420;28;20685;-75
2023/07/21 03:33:07;;;;;;;7.73;6.70;;;13.90;99.90;;;;;;5015535;28;20173;-76
2023/07/21 03:35:32;;;;;;;7.90;6.80;;;13.90;99.90;;;;;;5007885;28;20743;-76
2023/07/21 03:37:58;;;;;;;9.30;6.77;;;13.90;99.90;;;;;;5011483;28;20265;-75
2023/07/21 03:40:24;;;;;;;9.00;7.90;;;13.80;99.90;;;;;;5014199;28;20207;-75
2023/07/21 03:42:49;;;;;;;8.33;7.40;;;13.80;99.90;;;;;;5014183;28;20169;-75
2023/07/21 03:45:15;;;;;;;8.97;7.17;;;13.80;99.90;;;;;;5011507;28;20193;-75
2023/07/21 03:47:41;;;;;;;7.97;7.27;;;13.80;99.90;;;;;;5013962;28;20176;-76
2023/07/21 03:50:10;;;;;;;8.30;7.50;;;13.80;99.90;;;;;;5012609;28;20192;-75
2023/07/21 03:52:35;;;;;;;8.60;7.80;;;13.80;99.90;;;;;;5014222;28;20176;-75
2023/07/21 03:55:01;;;;;;;7.43;6.73;;;13.80;99.90;;;;;;5011852;28;20251;-76
2023/07/21 03:57:27;;;;;;;8.10;7.00;;;13.70;99.90;;;;;;5013742;28;20295;-75
2023/07/21 03:59:52;;;;;;;7.23;6.53;;;13.70;99.90;;;;;;5013812;28;20235;-75
2023/07/21 04:02:18;;;;;;;7.60;6.73;;;13.70;99.90;;;;;;5013789;28;20169;-75
2023/07/21 04:04:48;;;;;;;9.87;7.13;;;13.70;99.90;;;;;;5012609;28;20177;-75
2023/07/21 04:07:14;;;;;;;9.80;8.83;;;13.70;99.90;;;;;;5012552;28;20181;-75
2023/07/21 04:09:40;;;;;;;10.90;9.27;;;13.60;99.90;;;;;;5013625;28;20196;-75
2023/07/21 04:12:06;;;;;;;11.07;9.43;;;13.60;99.90;;;;;;5012367;28;20230;-75
2023/07/21 04:14:32;;;;;;;11.37;9.20;;;13.60;99.90;;;;;;5006695;28;20229;-75
2023/07/21 04:16:58;;;;;;;10.13;9.10;;;13.60;99.90;;;;;;4992618;28;20225;-75
2023/07/21 04:19:25;;;;;;;9.83;8.77;;;13.60;99.90;;;;;;4994007;28;20173;-75
2023/07/21 04:21:52;;;;;;;9.80;8.90;;;13.60;99.90;;;;;;4994166;28;20678;-75
2023/07/21 04:24:17;;;;;;;11.23;8.53;;;13.60;99.90;;;;;;4996920;28;20173;-75
2023/07/21 04:26:43;;;;;;;9.90;8.90;;;13.60;99.90;;;;;;5013534;28;20169;-75
2023/07/21 04:29:08;;;;;;;11.90;8.80;;;13.60;99.90;;;;;;5012312;28;20184;-75
2023/07/21 04:31:34;;;;;;;10.00;9.03;;;13.60;99.90;;;;;;5013896;28;20279;-75
2023/07/21 04:33:59;;;;;;;9.40;8.50;;;13.60;99.90;;;;;;5012076;28;20288;-76
2023/07/21 04:36:25;;;;;;;9.03;8.10;;;13.90;99.90;;;;;;4977099;28;1038479;-75
2023/07/21 04:38:51;;;;;;;9.27;8.37;;;13.70;99.90;;;;;;5014449;28;20262;-77
2023/07/21 04:41:16;;;;;;;8.67;7.73;;;13.80;99.90;;;;;;5012922;28;20703;-76
2023/07/21 04:43:43;;;;;;;9.17;7.40;;;13.80;99.90;;;;;;5014082;28;20205;-76
2023/07/21 04:46:09;;;;;;;8.37;7.47;;;13.80;99.90;;;;;;5011542;28;20625;-76
2023/07/21 04:48:35;;;;;;;8.70;7.80;;;13.90;99.90;;;;;;5014203;28;20180;-76
2023/07/21 04:51:01;;;;;;;9.90;8.70;;;13.90;99.90;;;;;;5012767;28;20235;-76
2023/07/21 04:53:27;;;;;;;9.67;8.00;;;13.90;99.90;;;;;;5012651;28;20239;-76
2023/07/21 04:55:58;;;;;;;8.10;7.30;;;13.90;99.90;;;;;;5013076;28;20684;-76
2023/07/21 04:58:24;;;;;;;8.50;7.70;;;14.00;99.90;;;;;;5013963;28;20173;-76
2023/07/21 05:00:50;;;;;;;9.10;8.30;;;14.00;99.90;;;;;;5013816;28;20268;-76
2023/07/21 05:03:16;;;;;;;11.50;8.70;;;14.00;99.90;;;;;;5012655;28;20177;-76
2023/07/21 05:05:44;;;;;;;9.53;8.53;;;14.10;99.90;;;;;;5011714;28;20239;-76
2023/07/21 05:08:10;;;;;;;13.23;8.40;;;14.10;99.90;;;;;;5012532;28;20351;-76
2023/07/21 05:10:36;;;;;;;10.50;8.57;;;14.10;99.90;;;;;;5013769;28;20701;-76
2023/07/21 05:13:05;;;;;;;9.80;8.80;;;14.10;99.90;;;;;;5013859;28;20192;-76
2023/07/21 05:15:35;;;;;;;10.13;9.00;;;14.20;99.90;;;;;;5013639;28;20180;-76
2023/07/21 05:18:01;;;;;;;9.73;8.83;;;14.20;99.90;;;;;;5013787;28;20165;-76
2023/07/21 05:20:26;;;;;;;9.90;8.80;;;14.20;99.90;;;;;;5013623;28;20220;-76
2023/07/21 05:22:52;;;;;;;10.33;9.33;;;14.30;99.90;;;;;;5013192;28;20649;-76
2023/07/21 05:25:18;;;;;;;12.03;10.83;;;14.30;99.90;;;;;;5013591;28;20593;-76
2023/07/21 05:27:47;;;;;;;13.07;8.80;;;14.30;99.90;;;;;;5013511;28;20667;-76
2023/07/21 05:30:13;;;;;;;11.33;10.07;;;14.30;99.90;;;;;;5013452;28;20188;-76
2023/07/21 05:32:41;;;;;;;12.47;10.83;;;14.50;99.90;;;;;;5013488;28;20176;-76
2023/07/21 05:35:08;;;;;;;10.73;9.70;;;14.40;99.90;;;;;;5013369;28;20652;-76
2023/07/21 05:37:34;;;;;;;12.17;10.93;;;14.50;99.90;;;;;;5013347;28;20350;-76
2023/07/21 05:39:59;;;;;;;11.57;10.37;;;14.50;99.90;;;;;;5012051;28;20201;-76
2023/07/21 05:42:25;;;;;;;13.30;11.90;;;14.60;99.90;;;;;;5013315;28;20201;-76
2023/07/21 05:44:50;;;;;;;11.57;10.37;;;14.60;99.90;;;;;;5012132;28;20181;-76
2023/07/21 05:47:16;;;;;;;13.23;10.43;;;14.60;99.90;;;;;;5012416;28;20192;-76
2023/07/21 05:49:41;;;;;;;12.77;11.10;;;14.70;99.90;;;;;;5013390;28;20197;-76
2023/07/21 05:52:07;;;;;;;13.40;12.10;;;14.70;99.90;;;;;;5013507;28;20181;-76
2023/07/21 05:54:33;;;;;;;13.80;12.43;;;14.80;99.90;;;;;;5013188;28;20492;-76
2023/07/21 05:56:58;;;;;;;15.80;12.77;;;14.80;99.90;;;;;;5013095;28;20339;-76
2023/07/21 05:59:24;;;;;;;13.67;12.43;;;14.90;99.90;;;;;;5012985;28;20177;-76
2023/07/21 06:01:51;;;;;;;15.80;14.10;;;14.90;99.90;;;;;;5013017;28;20660;-76
2023/07/21 06:04:16;;;;;;;14.70;13.30;;;14.90;99.90;;;;;;5012986;28;20595;-76
2023/07/21 06:06:42;;;;;;;13.83;12.43;;;15.00;99.90;;;;;;5011673;28;20184;-76
2023/07/21 06:09:07;;;;;;;15.40;13.90;;;15.00;99.90;;;;;;5012761;28;20173;-76
2023/07/21 06:11:33;;;;;;;15.50;14.00;;;15.10;99.90;;;;;;5011658;28;20184;-76
2023/07/21 06:13:58;;;;;;;14.60;13.13;;;15.10;99.90;;;;;;5012755;28;20185;-77
2023/07/21 06:16:24;;;;;;;17.47;14.77;;;15.20;99.90;;;;;;5011506;28;20209;-76
2023/07/21 06:18:51;;;;;;;16.40;14.80;;;15.30;99.90;;;;;;5013230;28;20641;-77
2023/07/21 06:21:17;;;;;;;17.50;15.70;;;15.30;99.90;;;;;;5011474;28;20200;-76
2023/07/21 06:23:44;;;;;;;17.87;16.00;;;15.40;99.90;;;;;;5012848;28;20173;-76
2023/07/21 06:26:10;;;;;;;20.53;18.43;;;15.50;99.90;;;;;;5012703;28;20184;-76
2023/07/21 06:28:35;;;;;;;19.67;17.70;;;15.50;99.90;;;;;;5012747;28;20173;-76
2023/07/21 06:31:02;;;;;;;18.67;16.87;;;15.60;99.90;;;;;;5011269;28;20278;-76
2023/07/21 06:33:28;;;;;;;19.17;17.27;;;15.70;99.90;;;;;;5011316;28;20324;-76
2023/07/21 06:35:54;;;;;;;18.90;17.10;;;15.70;99.90;;;;;;5016272;28;20347;-76
2023/07/21 06:38:19;;;;;;;20.83;18.07;;;15.80;99.90;;;;;;5016788;28;20176;-76
2023/07/21 06:40:45;;;;;;;20.33;18.13;;;15.80;99.90;;;;;;5016621;28;20192;-76
2023/07/21 06:43:10;;;;;;;19.80;17.40;;;15.80;99.90;;;;;;5015130;28;20258;-76
2023/07/21 06:45:39;;;;;;;20.50;18.20;;;15.80;99.90;;;;;;5016647;28;20238;-76
2023/07/21 06:48:06;;;;;;;20.60;18.43;;;15.90;99.90;;;;;;5015086;28;20177;-76
2023/07/21 06:50:32;;;;;;;21.13;18.20;;;15.90;99.90;;;;;;5016257;28;20189;-76
2023/07/21 06:52:58;;;;;;;19.60;17.50;;;16.00;99.90;;;;;;5016429;28;20165;-76
2023/07/21 06:55:24;;;;;;;18.87;16.97;;;16.00;99.90;;;;;;5015127;28;20179;-77
2023/07/21 06:57:49;;;;;;;19.07;17.07;;;16.00;99.90;;;;;;5016599;28;20601;-76
2023/07/21 07:00:16;;;;;;;18.47;16.67;;;16.10;99.90;;;;;;5016213;28;20247;-77
2023/07/21 07:02:47;;;;;;;18.10;16.40;;;16.10;99.90;;;;;;5016798;28;20211;-76
2023/07/21 07:05:13;;;;;;;19.13;16.10;;;16.10;99.90;;;;;;5014909;28;20231;-77
2023/07/21 07:07:39;;;;;;;17.73;15.33;;;16.20;99.90;;;;;;5016318;28;20256;-77
2023/07/21 07:10:05;;;;;;;16.07;14.40;;;16.30;99.90;;;;;;5016123;28;20280;-77
2023/07/21 07:12:32;;;;;;;15.67;14.17;;;16.40;99.90;;;;;;5016606;28;20192;-78
2023/07/21 07:14:58;;;;;;;16.80;14.40;;;16.40;99.90;;;;;;5018129;28;20169;-77
2023/07/21 07:17:24;;;;;;;16.07;14.47;;;16.50;99.90;;;;;;5015840;28;20332;-77
2023/07/21 07:19:50;;;;;;;15.47;13.97;;;16.50;99.90;;;;;;5016684;28;20263;-78
2023/07/21 07:22:15;;;;;;;15.80;14.20;;;16.50;99.90;;;;;;5017791;28;20176;-78
2023/07/21 07:24:41;;;;;;;15.10;13.60;;;16.60;99.90;;;;;;5016934;28;20259;-77
2023/07/21 07:27:07;;;;;;;14.80;13.40;;;16.70;99.90;;;;;;5014578;28;20187;-77
2023/07/21 07:29:34;;;;;;;12.43;11.13;;;16.70;99.90;;;;;;5015816;28;20252;-77
2023/07/21 07:32:00;;;;;;;13.30;11.90;;;16.80;99.90;;;;;;5014605;28;20224;-77
2023/07/21 07:34:26;;;;;;;14.73;13.23;;;16.90;99.90;;;;;;5015719;28;20188;-77
2023/07/21 07:36:52;;;;;;;15.70;14.03;;;16.90;99.90;;;;;;5015620;28;20292;-77
2023/07/21 07:39:18;;;;;;;18.00;13.87;;;16.90;99.90;;;;;;5015731;28;20612;-76
2023/07/21 07:41:49;;;;;;;16.00;12.47;;;17.10;99.90;;;;;;5015617;28;20248;-77
2023/07/21 07:44:14;;;;;;;14.20;12.77;;;17.20;99.90;;;;;;5014282;28;20161;-77
2023/07/21 07:46:40;;;;;;;14.73;11.73;;;17.30;99.90;;;;;;5015399;28;20179;-77
2023/07/21 07:49:06;;;;;;;13.97;10.77;;;17.30;99.90;;;;;;5015762;28;20177;-77
2023/07/21 07:51:31;;;;;;;12.03;10.10;;;17.40;99.90;;;;;;5015598;28;20613;-77
2023/07/21 07:53:57;;;;;;;10.67;9.57;;;17.40;99.90;;;;;;5015682;28;20173;-77
2023/07/21 07:56:23;;;;;;;10.37;8.40;;;17.50;99.90;;;;;;5014347;28;20200;-77
2023/07/21 07:58:49;;;;;;;12.00;9.33;;;17.40;99.90;;;;;;5018733;28;20176;-77
2023/07/21 08:01:14;;;;;;;11.13;9.67;;;17.60;1.00;;;;;;5022571;28;20207;-77
2023/07/21 08:03:43;;;;;;;11.63;10.17;;;17.60;1.00;;;;;;5017685;28;20227;-77
2023/07/21 08:06:10;;;;;;;11.17;10.07;;;17.70;1.00;;;;;;5013973;28;20188;-77
2023/07/21 08:08:36;;;;;;;11.00;9.90;;;17.70;99.90;;;;;;5013790;28;20188;-77
2023/07/21 08:11:03;;;;;;;10.93;9.83;;;17.80;99.90;;;;;;5014980;28;20279;-77
2023/07/21 08:13:28;;;;;;;10.53;9.50;;;17.90;2.90;;;;;;5013899;28;20181;-77
2023/07/21 08:15:54;;;;;;;10.73;9.63;;;17.90;99.90;;;;;;5014992;28;20196;-77
2023/07/21 08:18:19;;;;;;;10.47;9.37;;;17.90;99.90;;;;;;5015075;28;20191;-77
2023/07/21 08:20:45;;;;;;;11.20;10.10;;;18.00;33.00;;;;;;5014979;28;20691;-77
2023/07/21 08:23:10;;;;;;;10.90;9.43;;;18.00;1.00;;;;;;5015127;28;20169;-77
2023/07/21 08:25:36;;;;;;;8.40;7.60;;;18.10;99.90;;;;;;5013596;28;20595;-77
2023/07/21 08:28:03;;;;;;;8.90;7.00;;;18.20;1.00;;;;;;5015060;28;20169;-77
2023/07/21 08:30:30;;;;;;;8.53;7.73;;;18.20;40.90;;;;;;5014594;28;20189;-77
2023/07/21 08:32:58;;;;;;;8.00;7.20;;;18.20;1.00;;;;;;5014721;28;20169;-77
2023/07/21 08:35:24;;;;;;;8.37;7.47;;;18.30;99.90;;;;;;5013347;28;20192;-77
2023/07/21 08:37:49;;;;;;;8.33;7.07;;;18.40;1.00;;;;;;5014697;28;20242;-76
2023/07/21 08:40:16;;;;;;;10.37;8.93;;;18.40;1.00;;;;;;5014464;28;20568;-76
2023/07/21 08:42:42;;;;;;;10.17;7.30;;;18.50;99.90;;;;;;5014709;28;20219;-77
2023/07/21 08:45:08;;;;;;;8.70;7.30;;;18.60;1.00;;;;;;5013689;28;20173;-77
2023/07/21 08:47:34;;;;;;;9.33;8.43;;;18.60;1.00;;;;;;5014100;28;20220;-77
2023/07/21 08:50:03;;;;;;;9.27;7.67;;;18.70;67.80;;;;;;5013256;28;20232;-77
2023/07/21 08:52:28;;;;;;;9.70;8.17;;;18.70;47.10;;;;;;5014924;28;20558;-77
2023/07/21 08:54:54;;;;;;;11.37;7.07;;;18.80;99.90;;;;;;5013373;28;20188;-77
2023/07/21 08:57:20;;;;;;;9.07;7.00;;;18.90;1.00;;;;;;5014922;28;20197;-77
2023/07/21 08:59:45;;;;;;;7.50;6.53;;;19.00;6.00;;;;;;5014326;28;20193;-77
2023/07/21 09:02:11;;;;;;;7.33;6.63;;;19.10;1.00;;;;;;5014647;28;20181;-77
2023/07/21 09:04:37;;;;;;;8.20;6.60;;;19.30;1.00;;;;;;5014638;28;20169;-77
2023/07/21 09:07:03;;;;;;;7.50;6.63;;;19.40;99.90;;;;;;5012790;28;20177;-76
2023/07/21 09:09:31;;;;;;;6.73;6.03;;;19.50;1.00;;;;;;5013835;28;20617;-76
2023/07/21 09:12:04;;;;;;;9.03;6.87;;;19.60;1.00;;;;;;5013982;28;20255;-77
2023/07/21 09:14:44;;;;;;;6.37;5.77;;;19.60;1.00;;;;;;5012693;28;20267;-77
2023/07/21 09:17:12;;;;;;;6.43;5.23;;;19.60;1.00;;;;;;5014097;28;20192;-76
2023/07/21 09:19:43;;;;;;;8.00;5.30;;;19.60;1.00;;;;;;5013919;28;20188;-76
2023/07/21 09:22:10;;;;;;;6.60;5.17;;;19.60;1.00;;;;;;5012539;28;20174;-77
2023/07/21 09:24:37;;;;;;;7.80;6.53;;;19.80;99.90;;;;;;5013859;28;20256;-76
2023/07/21 09:27:16;;;;;;;6.80;6.20;;;19.70;1.00;;;;;;5013894;28;20545;-77
2023/07/21 09:29:42;;;;;;;6.87;6.20;;;19.80;38.60;;;;;;5012475;28;20204;-77
2023/07/21 09:32:15;;;;;;;8.03;6.40;;;19.80;99.90;;;;;;5014894;28;20611;-77
2023/07/21 09:35:02;;;;;;;4.00;3.60;;;19.80;99.90;;;;;;5013305;28;20243;-77
2023/07/21 09:37:30;;;;;;;6.93;4.90;;;19.80;99.90;;;;;;5013759;28;20698;-77
2023/07/21 09:40:10;;;;;;;4.47;4.00;;;19.80;99.90;;;;;;5012159;28;20614;-77
2023/07/21 09:42:37;;;;;;;5.33;4.83;;;19.80;1.00;;;;;;5013527;28;20153;-77
2023/07/21 09:45:03;;;;;;;4.03;3.53;;;20.00;99.90;;;;;;5013387;28;20252;-77
2023/07/21 09:47:28;;;;;;;5.60;5.10;;;20.00;99.90;;;;;;5012292;28;20215;-77
2023/07/21 09:49:57;;;;;;;6.00;5.40;;;20.20;1.00;;;;;;5013365;28;20193;-76
2023/07/21 09:52:25;;;;;;;6.17;5.67;;;20.40;99.90;;;;;;5012047;28;20226;-77
2023/07/21 09:55:13;;;;;;;7.33;6.53;;;20.50;99.90;;;;;;5013349;28;20196;-77
2023/07/21 09:57:45;;;;;;;7.00;5.30;;;20.50;99.90;;;;;;5013139;28;20387;-77
2023/07/21 10:00:13;;;;;;;4.70;3.50;;;20.60;99.90;;;;;;5013351;28;20189;-77
2023/07/21 10:02:45;;;;;;;4.20;3.57;;;20.70;99.90;;;;;;5012028;28;20176;-77
2023/07/21 10:05:11;;;;;;;4.40;4.00;;;20.90;99.90;;;;;;5013598;28;20176;-77
2023/07/21 10:07:48;;;;;;;4.37;3.77;;;21.00;99.90;;;;;;5013610;28;20177;-77
2023/07/21 10:10:15;;;;;;;5.53;4.57;;;21.10;99.90;;;;;;5014771;28;20196;-77
2023/07/21 10:12:46;;;;;;;6.73;4.53;;;21.20;99.90;;;;;;5014873;28;20200;-77
2023/07/21 10:15:27;;;;;;;5.50;3.10;;;21.10;99.90;;;;;;5013518;28;20158;-77
2023/07/21 10:17:57;;;;;;;4.27;3.40;;;21.40;99.90;;;;;;5012065;28;20196;-77
2023/07/21 10:20:40;;;;;;;3.63;3.00;;;21.40;84.70;;;;;;5013423;28;20188;-77
2023/07/21 10:23:07;;;;;;;4.37;3.63;;;21.30;1.00;;;;;;5013724;28;20468;-77
2023/07/21 10:26:03;;;;;;;4.10;2.77;;;21.20;36.20;;;;;;5012352;28;20187;-77
2023/07/21 10:28:38;;;;;;;6.23;3.27;;;21.20;93.80;;;;;;5009315;28;20185;-77
2023/07/21 10:31:21;;;;;;;3.40;3.10;;;21.20;99.90;;;;;;5012934;28;20668;-77
2023/07/21 10:34:06;;;;;;;5.77;4.40;;;21.20;99.90;;;;;;5011471;28;20181;-78
2023/07/21 10:36:51;;;;;;;5.07;3.90;;;21.20;94.60;;;;;;5012617;28;20284;-78
2023/07/21 10:39:26;;;;;;;3.43;2.97;;;21.30;99.90;;;;;;5011405;28;20196;-77
2023/07/21 10:41:54;;;;;;;3.30;3.00;;;21.30;90.30;;;;;;5013524;28;20183;-78
2023/07/21 10:44:20;;;;;;;5.60;3.13;;;21.40;99.90;;;;;;5014121;28;20604;-79
2023/07/21 10:46:48;;;;;;;3.50;2.30;;;21.30;1.00;;;;;;5014076;28;20180;-79
2023/07/21 10:49:15;;;;;;;4.03;2.07;;;21.40;1.00;;;;;;5014230;28;20169;-78
2023/07/21 10:51:45;;;;;;;2.67;2.07;;;21.60;1.00;;;;;;5013867;28;20181;-78
2023/07/21 10:54:11;;;;;;;6.20;1.80;;;21.90;50.60;;;;;;5012706;28;20168;-78
2023/07/21 10:56:42;;;;;;;2.40;1.50;;;22.10;1.00;;;;;;5012633;28;20255;-79
2023/07/21 10:59:11;;;;;;;4.43;1.70;;;22.20;1.00;;;;;;5013736;28;20166;-78
2023/07/21 11:01:54;;;;;;;2.20;1.50;;;22.30;1.00;;;;;;5013907;28;20173;-78
2023/07/21 11:04:21;;;;;;;2.37;1.70;;;22.30;1.00;;;;;;5013868;28;20173;-79
2023/07/21 11:06:49;;;;;;;2.30;1.60;;;22.50;1.00;;;;;;5013531;28;20181;-79
2023/07/21 11:09:16;;;;;;;3.17;2.10;;;22.60;1.00;;;;;;5013421;28;20178;-79
2023/07/21 11:11:47;;;;;;;3.20;1.90;;;22.50;1.00;;;;;;5012722;28;20181;-79
2023/07/21 11:14:20;;;;;;;3.77;2.00;;;22.50;1.00;;;;;;5014158;28;20161;-79
2023/07/21 11:16:56;;;;;;;3.57;2.00;;;22.40;1.00;;;;;;5014159;28;20196;-79
2023/07/21 11:19:24;;;;;;;3.90;2.17;;;22.40;1.00;;;;;;5014020;28;20232;-79
2023/07/21 11:21:50;;;;;;;6.17;2.50;;;22.10;1.00;;;;;;5017432;28;20176;-79
2023/07/21 11:24:22;;;;;;;3.77;2.60;;;22.10;1.00;;;;;;5017650;28;20173;-79
2023/07/21 11:26:48;;;;;;;3.93;2.10;;;22.10;1.00;;;;;;5016550;28;20176;-79
2023/07/21 11:29:15;;;;;;;3.23;1.87;;;22.10;1.00;;;;;;5016495;28;20181;-79
2023/07/21 11:31:41;;;;;;;4.80;2.50;;;21.90;1.00;;;;;;5016222;28;20176;-79
2023/07/21 11:34:20;;;;;;;3.03;1.73;;;22.00;1.00;;;;;;5017540;28;20177;-79
2023/07/21 11:36:48;;;;;;;2.50;1.60;;;22.10;1.00;;;;;;5016458;28;20196;-79
2023/07/21 11:39:19;;;;;;;4.27;1.90;;;22.10;1.00;;;;;;5017476;28;20256;-79
2023/07/21 11:41:55;;;;;;;4.13;2.30;;;22.20;1.00;;;;;;5017282;28;20153;-79
2023/07/21 11:44:23;;;;;;;2.83;2.00;;;22.30;1.00;;;;;;5017206;28;20241;-79
2023/07/21 11:47:01;;;;;;;3.77;1.83;;;22.30;1.00;;;;;;5017527;28;20183;-79
2023/07/21 11:49:28;;;;;;;5.17;2.03;;;22.50;1.00;;;;;;5016273;28;20176;-80
2023/07/21 11:51:55;;;;;;;4.80;2.30;;;22.50;1.00;;;;;;5016682;28;20173;-80
2023/07/21 11:54:23;;;;;;;5.23;2.70;;;22.60;1.00;;;;;;5018289;28;20169;-80
2023/07/21 11:56:50;;;;;;;2.77;2.17;;;22.70;1.00;;;;;;5017916;28;20595;-79
2023/07/21 11:59:16;;;;;;;2.40;2.20;;;22.70;1.00;;;;;;5016793;28;20181;-80
2023/07/21 12:01:42;;;;;;;3.80;2.27;;;22.60;1.00;;;;;;5016665;28;20173;-80
2023/07/21 12:04:08;;;;;;;3.10;2.37;;;22.70;1.00;;;;;;5017202;28;20223;-80
2023/07/21 12:06:34;;;;;;;2.07;1.70;;;22.80;1.00;;;;;;5019159;28;20177;-79
2023/07/21 12:09:00;;;;;;;2.93;1.73;;;22.60;1.00;;;;;;5017998;28;20210;-79
2023/07/21 12:11:26;;;;;;;4.77;2.33;;;22.60;1.00;;;;;;5016407;28;20625;-80
2023/07/21 12:13:52;;;;;;;2.37;1.90;;;22.60;1.00;;;;;;5017414;28;20494;-80
2023/07/21 12:16:18;;;;;;;3.10;2.10;;;22.70;1.00;;;;;;5017411;28;20188;-80
2023/07/21 12:18:43;;;;;;;2.17;1.90;;;22.60;1.00;;;;;;5017336;28;20176;-80
2023/07/21 12:21:09;;;;;;;3.03;1.97;;;22.80;1.00;;;;;;5017155;28;20200;-80
2023/07/21 12:23:35;;;;;;;2.20;1.73;;;22.80;1.00;;;;;;5016707;28;20197;-80
2023/07/21 12:26:01;;;;;;;3.03;2.43;;;22.90;1.00;;;;;;5017651;28;20672;-80
2023/07/21 12:28:27;;;;;;;2.30;2.10;;;23.00;1.00;;;;;;5017419;28;20254;-79
2023/07/21 12:30:53;;;;;;;6.03;2.60;;;22.90;1.00;;;;;;5016915;28;20196;-80
2023/07/21 12:33:18;;;;;;;2.30;2.00;;;22.70;1.00;;;;;;5016234;28;20195;-79
2023/07/21 12:35:45;;;;;;;3.03;2.07;;;22.50;1.00;;;;;;5016719;28;20201;-80
2023/07/21 12:38:11;;;;;;;2.83;2.00;;;22.40;1.00;;;;;;5015750;28;20318;-80
2023/07/21 12:40:36;;;;;;;2.33;1.80;;;22.30;1.00;;;;;;5016601;28;20204;-80
2023/07/21 12:43:03;;;;;;;2.60;2.20;;;22.20;1.00;;;;;;5017298;28;20180;-80